Bookmark and Share
Track history (hours):
 

Cosco Nagoya

Last reported at 2014-Apr-19 11:32 UTC. Time now 2014-Apr-19 12:14 UTC.
Position N 49°27' E 000°10'.

Length 260 m; draft 1.5 m.

Type: Cargo ship. MMSI: 370320000.

NotesDate/timePositionNaut miles runAvg speedWind from/ knotsBaromVisibWave heightAir tempDewpointWater temp
2014-Apr-19 11:32N 49°27' E 000°10'0 0.0
2014-Apr-19 10:32N 49°27' E 000°10'4 4.4
2014-Apr-19 09:33N 49°29' E 000°04'1313.0
2014-Apr-19 08:33N 49°37' W 000°13'0 0.4
2014-Apr-19 07:22N 49°37' W 000°13'0 0.1
2014-Apr-19 06:28N 49°37' W 000°13'0 0.0
2014-Apr-19 05:28N 49°37' W 000°13'0 0.0
2014-Apr-19 04:22N 49°37' W 000°13'0 0.0
2014-Apr-19 03:31N 49°37' W 000°13'0 0.0
2014-Apr-19 02:22N 49°37' W 000°13'0 0.1
2014-Apr-19 01:28N 49°37' W 000°13'0 0.1
2014-Apr-19 00:25N 49°37' W 000°13'0 0.2
2014-Apr-18 23:28N 49°37' W 000°13'0 0.1
2014-Apr-18 22:25N 49°37' W 000°13'0 0.1
2014-Apr-18 21:13N 49°37' W 000°13'0 0.1
2014-Apr-18 20:16N 49°37' W 000°13'0 0.5
2014-Apr-18 19:33N 49°37' W 000°13'5717.3
2014-Apr-18 16:14N 50°31' E 000°16'1420.3
2014-Apr-18 15:33N 50°37' E 000°36'1919.3
2014-Apr-18 14:33N 50°48' E 001°01'1817.4
2014-Apr-18 13:31N 51°01' E 001°21'1717.6
2014-Apr-18 12:33N 51°12' E 001°42'2019.5
2014-Apr-18 11:33N 51°28' E 001°60'2121.0
2014-Apr-18 10:33N 51°44' E 002°21'4518.5
2014-Apr-18 08:08N 52°03' E 003°27'1118.7
2014-Apr-18 07:33N 52°03' E 003°44'1212.2
2014-Apr-18 06:33N 51°59' E 004°03'2 2.3
2014-Apr-18 05:33N 51°57' E 004°04'0 0.0
2014-Apr-18 04:27N 51°57' E 004°04'0 0.0
2014-Apr-18 03:33N 51°57' E 004°04'0 0.0
2014-Apr-18 02:33N 51°57' E 004°04'0 0.0
2014-Apr-18 01:33N 51°57' E 004°04'0 0.0
2014-Apr-18 00:33N 51°57' E 004°04'0 0.0
2014-Apr-17 23:34N 51°57' E 004°04'0 0.0
2014-Apr-17 22:34N 51°57' E 004°04'0 0.0
2014-Apr-17 21:28N 51°57' E 004°04'0 0.0
2014-Apr-17 20:34N 51°57' E 004°04'0 0.0
2014-Apr-17 19:31N 51°57' E 004°04'0 0.0
2014-Apr-17 18:34N 51°57' E 004°04'0 0.0
2014-Apr-17 17:31N 51°57' E 004°04'0 0.0
2014-Apr-17 16:33N 51°57' E 004°04'0 0.0
2014-Apr-17 15:34N 51°57' E 004°04'0 0.0
2014-Apr-17 14:21N 51°57' E 004°04'0 0.0
2014-Apr-17 13:34N 51°57' E 004°04'0 0.0
2014-Apr-17 12:31N 51°57' E 004°04'0 0.0
2014-Apr-17 11:34N 51°57' E 004°04'0 0.0
2014-Apr-17 10:34N 51°57' E 004°04'0 0.0
2014-Apr-17 09:33N 51°57' E 004°04'0 0.0
2014-Apr-17 08:33N 51°57' E 004°04'0 0.0
2014-Apr-17 07:31N 51°57' E 004°04'0 0.0
2014-Apr-17 06:31N 51°57' E 004°04'0 0.0
2014-Apr-17 05:31N 51°57' E 004°04'2 1.9
2014-Apr-17 04:33N 51°59' E 004°04'10 9.7
2014-Apr-17 03:33N 52°02' E 003°49'1212.2
2014-Apr-17 02:33N 52°13' E 003°42'1 0.7
2014-Apr-17 01:33N 52°13' E 003°41'1313.3
2014-Apr-17 00:34N 52°25' E 003°49'1615.8
2014-Apr-16 23:33N 52°40' E 003°54'1919.0
2014-Apr-16 22:33N 52°59' E 004°02'1919.3
2014-Apr-16 21:33N 53°12' E 004°26'1918.6
2014-Apr-16 20:33N 53°29' E 004°39'1817.7
2014-Apr-16 19:33N 53°35' E 005°06'1717.4
2014-Apr-16 18:33N 53°41' E 005°34'1818.3
2014-Apr-16 17:33N 53°47' E 006°04'2019.8
2014-Apr-16 16:33N 53°53' E 006°36'2020.1
2014-Apr-16 15:33N 53°57' E 007°09'1918.5
2014-Apr-16 14:33N 53°58' E 007°40'1615.8
2014-Apr-16 13:33N 53°50' E 008°04'1818.3
2014-Apr-16 12:34N 53°38' E 008°27'4 4.3
2014-Apr-16 11:32N 53°35' E 008°32'0 0.0
2014-Apr-16 10:32N 53°35' E 008°32'0 0.0
2014-Apr-16 09:32N 53°35' E 008°32'0 0.0
2014-Apr-16 08:32N 53°35' E 008°32'0 0.0
2014-Apr-16 07:32N 53°35' E 008°32'0 0.0
2014-Apr-16 06:32N 53°35' E 008°32'0 0.0
2014-Apr-16 05:32N 53°35' E 008°32'0 0.0
2014-Apr-16 04:32N 53°35' E 008°32'0 0.0
2014-Apr-16 03:32N 53°35' E 008°32'0 0.0
2014-Apr-16 02:32N 53°35' E 008°32'0 0.0
2014-Apr-16 01:32N 53°35' E 008°32'0 0.0
2014-Apr-16 00:32N 53°35' E 008°32'0 0.0
2014-Apr-15 23:32N 53°35' E 008°32'0 0.0
2014-Apr-15 22:32N 53°35' E 008°32'0 0.0
2014-Apr-15 21:32N 53°35' E 008°32'0 0.0
2014-Apr-15 20:32N 53°35' E 008°32'0 0.0
2014-Apr-15 19:32N 53°35' E 008°32'0 0.0
2014-Apr-15 18:32N 53°35' E 008°32'0 0.0
2014-Apr-15 17:32N 53°35' E 008°32'0 0.0
2014-Apr-15 16:32N 53°35' E 008°32'0 0.0
2014-Apr-15 15:32N 53°35' E 008°32'0 0.0
2014-Apr-15 14:32N 53°35' E 008°32'0 0.0
2014-Apr-15 12:32N 53°35' E 008°32'0 0.0
2014-Apr-15 11:32N 53°35' E 008°32'4 3.8
2014-Apr-15 10:34N 53°38' E 008°28'1515.4
2014-Apr-15 09:34N 53°48' E 008°08'1313.4
2014-Apr-15 08:34N 53°55' E 007°49'2 1.7
2014-Apr-15 07:34N 53°54' E 007°46'1110.5
2014-Apr-15 06:34N 53°55' E 007°28'10 9.8
2014-Apr-15 05:34N 53°52' E 007°12'3417.1
2014-Apr-15 03:33N 53°44' E 006°16'1716.8
2014-Apr-15 02:33N 53°39' E 005°49'1616.3
2014-Apr-15 01:34N 53°34' E 005°23'1615.9
2014-Apr-15 00:34N 53°29' E 004°58'1515.4
2014-Apr-14 23:34N 53°19' E 004°37'1616.2
2014-Apr-14 22:33N 53°05' E 004°24'1616.3
2014-Apr-14 21:34N 52°50' E 004°14'1616.4
2014-Apr-14 20:34N 52°37' E 003°57'1616.4
2014-Apr-14 19:34N 52°25' E 003°38'4715.6
2014-Apr-14 16:33N 51°41' E 003°11'1616.7
2014-Apr-14 15:33N 51°27' E 002°59'1717.5
2014-Apr-14 14:34N 51°25' E 003°27'1211.6
2014-Apr-14 13:34N 51°22' E 003°45'19 9.5
2014-Apr-14 11:34N 51°21' E 004°15'3 2.7
2014-Apr-14 10:30N 51°18' E 004°16'0 0.0
2014-Apr-14 09:30N 51°18' E 004°16'0 0.0
2014-Apr-14 08:33N 51°18' E 004°16'0 0.0
2014-Apr-14 07:33N 51°18' E 004°16'0 0.0
2014-Apr-14 06:33N 51°18' E 004°16'0 0.0
2014-Apr-14 05:33N 51°18' E 004°16'0 0.0
2014-Apr-13 22:33N 51°18' E 004°16'0 0.0
2014-Apr-13 21:33N 51°18' E 004°16'0 0.0
2014-Apr-13 20:33N 51°18' E 004°16'0 0.0
2014-Apr-13 19:33N 51°18' E 004°16'0 0.0
2014-Apr-13 18:33N 51°18' E 004°16'0 0.0
2014-Apr-13 17:33N 51°18' E 004°16'0 0.0
2014-Apr-13 16:33N 51°18' E 004°16'0 0.2
2014-Apr-13 15:34N 51°18' E 004°16'6 6.2
2014-Apr-13 14:33N 51°23' E 004°09'8 7.6
2014-Apr-13 13:33N 51°23' E 003°57'9 9.1
2014-Apr-13 12:33N 51°24' E 003°43'1212.2
2014-Apr-13 11:33N 51°24' E 003°23'2020.0
2014-Apr-13 10:33N 51°22' E 002°51'1414.3
2014-Apr-13 09:34N 51°22' E 002°28'1918.6
2014-Apr-13 08:33N 51°12' E 002°02'1717.5
2014-Apr-13 07:34N 51°03' E 001°40'1616.2
2014-Apr-13 06:33N 50°49' E 001°24'1716.6
2014-Apr-13 05:33N 50°36' E 001°09'1817.9
2014-Apr-13 04:33N 50°27' E 000°45'1818.2
2014-Apr-13 03:34N 50°22' E 000°18'3517.7
2014-Apr-13 01:33N 50°14' W 000°36'1716.7
2014-Apr-13 00:34N 50°08' W 001°01'1716.5
2014-Apr-12 23:33N 50°04' W 001°26'3517.6
2014-Apr-12 21:33N 49°54' W 002°18'2319.3
2014-Apr-12 20:22N 49°48' W 002°53'  

Dump ship's entire track history

sailing weather and tide predictions

Cosco Nagoya — 3ESJ8 — position and weather